FJI855V KJFK-EIDW
Flight info
| Callsign | FJI855V |
|---|---|
| Flight time | N/A |
| Altitude | 39000 |
| Route | MERIT DCT HFD DCT PUT DCT TOPPS DCT NEEKO/M084F400 DCT 54N050W 55N040W 55N030W 54N020W DCT MALOT DCT GISTI/N0490F410 DCT OSGAR OSGAR3R |
| Aircraft | A359/H-SDE2E3GHIJ3J4J5LM1ORWXY/LB1D1 |
Departure
| Time | N/A |
|---|---|
| Airport | John F. Kennedy International Airport (KJFK) |
Arrival
| Time | 2026-04-30 22:06 |
|---|---|
| Airport | Dublin Airport (EIDW) |
| Time | Latitude | Longitude | Altitude | Speed | Heading |
|---|---|---|---|---|---|
| 2026-04-30 17:39 | 49.48087 | -61.43070 | 39212 ft | 500 kts | 50° |
| 2026-04-30 17:42 | 49.70970 | -61.03264 | 39229 ft | 498 kts | 51° |
| 2026-04-30 17:43 | 49.82375 | -60.83220 | 39242 ft | 498 kts | 51° |
| 2026-04-30 17:44 | 49.96050 | -60.58987 | 39265 ft | 498 kts | 51° |
| 2026-04-30 17:47 | 50.16453 | -60.22431 | 39246 ft | 500 kts | 52° |
| 2026-04-30 17:48 | 50.32292 | -59.93692 | 39237 ft | 501 kts | 52° |
| 2026-04-30 17:50 | 50.50316 | -59.60563 | 39228 ft | 502 kts | 52° |
| 2026-04-30 17:52 | 50.63835 | -59.35438 | 39221 ft | 503 kts | 52° |
| 2026-04-30 17:54 | 50.84004 | -58.97427 | 39226 ft | 503 kts | 52° |
| 2026-04-30 17:56 | 51.01824 | -58.63426 | 39221 ft | 505 kts | 52° |
| 2026-04-30 17:58 | 51.15226 | -58.37618 | 39236 ft | 507 kts | 52° |
| 2026-04-30 18:00 | 51.32964 | -58.02975 | 39228 ft | 505 kts | 53° |
| 2026-04-30 18:01 | 51.43993 | -57.81190 | 39216 ft | 507 kts | 53° |
| 2026-04-30 18:02 | 51.57214 | -57.54837 | 39227 ft | 507 kts | 53° |
| 2026-04-30 18:04 | 51.70418 | -57.28229 | 39219 ft | 508 kts | 53° |
| 2026-04-30 18:06 | 51.87893 | -56.92562 | 39202 ft | 508 kts | 53° |
| 2026-04-30 18:08 | 52.03077 | -56.61200 | 39207 ft | 508 kts | 53° |
| 2026-04-30 18:10 | 52.20361 | -56.25104 | 39203 ft | 507 kts | 53° |
| 2026-04-30 18:11 | 52.35361 | -55.93247 | 39209 ft | 508 kts | 53° |
| 2026-04-30 18:13 | 52.44507 | -55.68890 | 39208 ft | 506 kts | 65° |
| 2026-04-30 18:14 | 52.52330 | -55.43204 | 39210 ft | 505 kts | 64° |
| 2026-04-30 18:15 | 52.61667 | -55.12304 | 39225 ft | 505 kts | 65° |
| 2026-04-30 18:16 | 52.67861 | -54.91613 | 39225 ft | 505 kts | 65° |
| 2026-04-30 18:17 | 52.70926 | -54.81313 | 39223 ft | 505 kts | 65° |
| 2026-04-30 18:18 | 52.75528 | -54.65760 | 39226 ft | 504 kts | 65° |
| 2026-04-30 18:18 | 52.78574 | -54.55410 | 39227 ft | 503 kts | 65° |
| 2026-04-30 18:19 | 52.81618 | -54.45023 | 39234 ft | 503 kts | 65° |
| 2026-04-30 18:19 | 52.84647 | -54.34649 | 39240 ft | 503 kts | 65° |
| 2026-04-30 18:20 | 52.87658 | -54.24260 | 39248 ft | 503 kts | 66° |
| 2026-04-30 18:20 | 52.90664 | -54.13847 | 39249 ft | 503 kts | 66° |
| 2026-04-30 18:21 | 52.93642 | -54.03495 | 39255 ft | 503 kts | 66° |
| 2026-04-30 18:21 | 52.96644 | -53.93021 | 39254 ft | 503 kts | 66° |
| 2026-04-30 18:22 | 52.99623 | -53.82579 | 39265 ft | 502 kts | 65° |
| 2026-04-30 18:22 | 53.04065 | -53.66933 | 39257 ft | 502 kts | 65° |
| 2026-04-30 18:23 | 53.07006 | -53.56515 | 39263 ft | 501 kts | 65° |
| 2026-04-30 18:23 | 53.09940 | -53.46081 | 39261 ft | 501 kts | 65° |
| 2026-04-30 18:24 | 53.14360 | -53.30407 | 39256 ft | 501 kts | 66° |
| 2026-04-30 18:25 | 53.17289 | -53.19885 | 39260 ft | 501 kts | 66° |
| 2026-04-30 18:25 | 53.21646 | -53.04111 | 39262 ft | 501 kts | 66° |
| 2026-04-30 18:26 | 53.25972 | -52.88348 | 39257 ft | 500 kts | 66° |
| 2026-04-30 18:27 | 53.30282 | -52.72535 | 39252 ft | 501 kts | 66° |
| 2026-04-30 18:28 | 53.34569 | -52.56695 | 39254 ft | 501 kts | 66° |
| 2026-04-30 18:28 | 53.38834 | -52.40831 | 39252 ft | 501 kts | 66° |
| 2026-04-30 18:29 | 53.44486 | -52.19591 | 39252 ft | 501 kts | 67° |
| 2026-04-30 18:30 | 53.50119 | -51.98247 | 39264 ft | 501 kts | 67° |
| 2026-04-30 18:31 | 53.54295 | -51.82312 | 39284 ft | 501 kts | 67° |
| 2026-04-30 18:32 | 53.58474 | -51.66246 | 39280 ft | 501 kts | 67° |
| 2026-04-30 18:33 | 53.62624 | -51.50178 | 39281 ft | 502 kts | 67° |
| 2026-04-30 18:33 | 53.66752 | -51.34078 | 39284 ft | 501 kts | 68° |
| 2026-04-30 18:34 | 53.70853 | -51.17930 | 39282 ft | 501 kts | 68° |
| 2026-04-30 18:35 | 53.73583 | -51.07130 | 39286 ft | 501 kts | 68° |
| 2026-04-30 18:35 | 53.76312 | -50.96292 | 39278 ft | 501 kts | 68° |
| 2026-04-30 18:36 | 53.80358 | -50.80133 | 39294 ft | 502 kts | 68° |
| 2026-04-30 18:37 | 53.84402 | -50.63854 | 39300 ft | 503 kts | 68° |
| 2026-04-30 18:37 | 53.87104 | -50.52912 | 39303 ft | 504 kts | 68° |
| 2026-04-30 18:38 | 53.89782 | -50.42010 | 39296 ft | 504 kts | 68° |
| 2026-04-30 18:38 | 53.92453 | -50.31087 | 39301 ft | 504 kts | 69° |
| 2026-04-30 18:39 | 53.95117 | -50.20103 | 39301 ft | 505 kts | 69° |
| 2026-04-30 18:39 | 53.97763 | -50.09165 | 39310 ft | 505 kts | 69° |
| 2026-04-30 18:40 | 54.00165 | -49.98033 | 39300 ft | 504 kts | 75° |
| 2026-04-30 18:40 | 54.01937 | -49.86551 | 39307 ft | 504 kts | 78° |
| 2026-04-30 18:41 | 54.03565 | -49.75002 | 39304 ft | 505 kts | 78° |
| 2026-04-30 18:41 | 54.05190 | -49.63422 | 39302 ft | 505 kts | 78° |
| 2026-04-30 18:42 | 54.06811 | -49.51848 | 39299 ft | 505 kts | 78° |
| 2026-04-30 18:42 | 54.09228 | -49.34492 | 39295 ft | 506 kts | 79° |
| 2026-04-30 18:45 | 54.17955 | -48.70543 | 39308 ft | 506 kts | 79° |
| 2026-04-30 18:46 | 54.19497 | -48.58876 | 39317 ft | 506 kts | 79° |
| 2026-04-30 18:46 | 54.21028 | -48.47191 | 39314 ft | 507 kts | 79° |
| 2026-04-30 18:47 | 54.22550 | -48.35491 | 39315 ft | 507 kts | 79° |
| 2026-04-30 18:47 | 54.24061 | -48.23754 | 39314 ft | 507 kts | 79° |
| 2026-04-30 18:48 | 54.25560 | -48.12006 | 39325 ft | 507 kts | 79° |
| 2026-04-30 18:48 | 54.27045 | -48.00286 | 39328 ft | 508 kts | 79° |
| 2026-04-30 18:49 | 54.28525 | -47.88504 | 39317 ft | 509 kts | 79° |
| 2026-04-30 18:49 | 54.29995 | -47.76726 | 39327 ft | 508 kts | 79° |
| 2026-04-30 18:50 | 54.31451 | -47.64939 | 39327 ft | 508 kts | 79° |
| 2026-04-30 18:50 | 54.32892 | -47.53191 | 39326 ft | 508 kts | 79° |
| 2026-04-30 18:51 | 54.34333 | -47.41321 | 39331 ft | 508 kts | 79° |
| 2026-04-30 18:51 | 54.35753 | -47.29530 | 39334 ft | 508 kts | 80° |
| 2026-04-30 18:52 | 54.37159 | -47.17725 | 39332 ft | 508 kts | 80° |
| 2026-04-30 18:52 | 54.38557 | -47.05888 | 39333 ft | 509 kts | 80° |
| 2026-04-30 18:53 | 54.39954 | -46.93972 | 39336 ft | 509 kts | 80° |
| 2026-04-30 18:53 | 54.41332 | -46.82111 | 39337 ft | 509 kts | 80° |
| 2026-04-30 18:54 | 54.42697 | -46.70257 | 39337 ft | 509 kts | 80° |
| 2026-04-30 18:54 | 54.44061 | -46.58315 | 39330 ft | 510 kts | 80° |
| 2026-04-30 18:55 | 54.45409 | -46.46381 | 39332 ft | 510 kts | 80° |
| 2026-04-30 18:55 | 54.47404 | -46.28511 | 39328 ft | 510 kts | 81° |
| 2026-04-30 18:56 | 54.49365 | -46.10663 | 39329 ft | 509 kts | 81° |
| 2026-04-30 18:57 | 54.51300 | -45.92817 | 39338 ft | 508 kts | 81° |
| 2026-04-30 18:57 | 54.52576 | -45.80908 | 39329 ft | 508 kts | 81° |
| 2026-04-30 18:58 | 54.54476 | -45.62996 | 39336 ft | 508 kts | 81° |
| 2026-04-30 18:59 | 54.56344 | -45.45088 | 39345 ft | 509 kts | 81° |
| 2026-04-30 19:00 | 54.58785 | -45.21234 | 39347 ft | 509 kts | 82° |
| 2026-04-30 19:01 | 54.61189 | -44.97263 | 39340 ft | 509 kts | 81° |
| 2026-04-30 19:02 | 54.62970 | -44.79207 | 39342 ft | 509 kts | 82° |
| 2026-04-30 19:03 | 54.65288 | -44.55257 | 39346 ft | 509 kts | 82° |
| 2026-04-30 19:04 | 54.67568 | -44.31166 | 39343 ft | 509 kts | 82° |
| 2026-04-30 19:05 | 54.69801 | -44.07015 | 39339 ft | 509 kts | 82° |
| 2026-04-30 19:06 | 54.71979 | -43.82924 | 39338 ft | 510 kts | 82° |
| 2026-04-30 19:06 | 54.73593 | -43.64722 | 39340 ft | 510 kts | 82° |
| 2026-04-30 19:07 | 54.75172 | -43.46606 | 39343 ft | 509 kts | 82° |
| 2026-04-30 19:08 | 54.77229 | -43.22483 | 39341 ft | 509 kts | 83° |
| 2026-04-30 19:09 | 54.78744 | -43.04290 | 39351 ft | 509 kts | 83° |
| 2026-04-30 19:09 | 54.79738 | -42.92200 | 39352 ft | 509 kts | 83° |
| 2026-04-30 19:10 | 54.81687 | -42.68033 | 39358 ft | 510 kts | 82° |
| 2026-04-30 19:11 | 54.83125 | -42.49807 | 39349 ft | 510 kts | 83° |
| 2026-04-30 19:12 | 54.84070 | -42.37610 | 39352 ft | 510 kts | 83° |
| 2026-04-30 19:12 | 54.84995 | -42.25500 | 39351 ft | 509 kts | 83° |
| 2026-04-30 19:13 | 54.86807 | -42.01277 | 39348 ft | 509 kts | 83° |
| 2026-04-30 19:14 | 54.87701 | -41.89093 | 39349 ft | 508 kts | 83° |
| 2026-04-30 19:14 | 54.88579 | -41.76968 | 39351 ft | 508 kts | 83° |
| 2026-04-30 19:15 | 54.89443 | -41.64864 | 39343 ft | 509 kts | 83° |
| 2026-04-30 19:15 | 54.90719 | -41.46652 | 39347 ft | 509 kts | 83° |
| 2026-04-30 19:16 | 54.91559 | -41.34446 | 39345 ft | 510 kts | 84° |
| 2026-04-30 19:17 | 54.92792 | -41.16135 | 39348 ft | 510 kts | 84° |
| 2026-04-30 19:17 | 54.94000 | -40.97796 | 39360 ft | 510 kts | 84° |
| 2026-04-30 19:18 | 54.95181 | -40.79492 | 39356 ft | 510 kts | 84° |
| 2026-04-30 19:19 | 54.95953 | -40.67263 | 39355 ft | 510 kts | 84° |
| 2026-04-30 19:19 | 54.97088 | -40.48921 | 39354 ft | 509 kts | 84° |
| 2026-04-30 19:20 | 54.97827 | -40.36722 | 39356 ft | 509 kts | 83° |
| 2026-04-30 19:21 | 54.98911 | -40.18476 | 39356 ft | 509 kts | 84° |
| 2026-04-30 19:22 | 55.00265 | -39.94033 | 39360 ft | 509 kts | 86° |
| 2026-04-30 19:23 | 55.01654 | -39.57241 | 39365 ft | 508 kts | 86° |
| 2026-04-30 19:24 | 55.02327 | -39.38908 | 39359 ft | 508 kts | 86° |
| 2026-04-30 19:25 | 55.03392 | -39.08273 | 39358 ft | 508 kts | 87° |
| 2026-04-30 19:26 | 55.04188 | -38.83746 | 39364 ft | 508 kts | 86° |
| 2026-04-30 19:27 | 55.04755 | -38.65332 | 39365 ft | 509 kts | 86° |
| 2026-04-30 19:28 | 55.05291 | -38.46990 | 39379 ft | 508 kts | 86° |
| 2026-04-30 19:29 | 55.05962 | -38.22538 | 39382 ft | 507 kts | 88° |
| 2026-04-30 19:30 | 55.06586 | -37.97968 | 39382 ft | 508 kts | 87° |
| 2026-04-30 19:31 | 55.07160 | -37.73459 | 39369 ft | 508 kts | 87° |
| 2026-04-30 19:31 | 55.07558 | -37.55090 | 39369 ft | 508 kts | 87° |
| 2026-04-30 19:32 | 55.07811 | -37.42761 | 39368 ft | 509 kts | 87° |
| 2026-04-30 19:32 | 55.08050 | -37.30470 | 39367 ft | 508 kts | 88° |
| 2026-04-30 19:33 | 55.08274 | -37.18186 | 39371 ft | 508 kts | 88° |
| 2026-04-30 19:33 | 55.08485 | -37.06000 | 39370 ft | 507 kts | 88° |
| 2026-04-30 19:34 | 55.08686 | -36.93764 | 39364 ft | 507 kts | 88° |
| 2026-04-30 19:35 | 55.08965 | -36.75315 | 39357 ft | 508 kts | 88° |
| 2026-04-30 19:35 | 55.09135 | -36.63089 | 39359 ft | 507 kts | 88° |
| 2026-04-30 19:36 | 55.09292 | -36.50843 | 39355 ft | 507 kts | 88° |
| 2026-04-30 19:36 | 55.09505 | -36.32451 | 39356 ft | 508 kts | 88° |
| 2026-04-30 19:37 | 55.09633 | -36.20189 | 39357 ft | 509 kts | 88° |
| 2026-04-30 19:37 | 55.09748 | -36.07884 | 39362 ft | 508 kts | 88° |
| 2026-04-30 19:38 | 55.09851 | -35.95604 | 39354 ft | 508 kts | 89° |
| 2026-04-30 19:38 | 55.09940 | -35.83344 | 39359 ft | 508 kts | 88° |
| 2026-04-30 19:39 | 55.10019 | -35.71051 | 39353 ft | 507 kts | 88° |
| 2026-04-30 19:39 | 55.10115 | -35.58847 | 39356 ft | 507 kts | 88° |
| 2026-04-30 19:40 | 55.10189 | -35.46617 | 39364 ft | 507 kts | 88° |
| 2026-04-30 19:40 | 55.10237 | -35.34299 | 39368 ft | 507 kts | 89° |
| 2026-04-30 19:41 | 55.10267 | -35.22071 | 39369 ft | 507 kts | 89° |
| 2026-04-30 19:41 | 55.10283 | -35.09811 | 39370 ft | 508 kts | 89° |
| 2026-04-30 19:42 | 55.10286 | -34.97484 | 39370 ft | 508 kts | 89° |
| 2026-04-30 19:42 | 55.10277 | -34.85206 | 39374 ft | 507 kts | 89° |
| 2026-04-30 19:43 | 55.10257 | -34.72955 | 39377 ft | 507 kts | 89° |
| 2026-04-30 19:44 | 55.10202 | -34.54627 | 39376 ft | 507 kts | 89° |
| 2026-04-30 19:44 | 55.10151 | -34.42315 | 39378 ft | 507 kts | 89° |
| 2026-04-30 19:45 | 55.10088 | -34.30092 | 39372 ft | 507 kts | 89° |
| 2026-04-30 19:45 | 55.10011 | -34.17828 | 39377 ft | 507 kts | 89° |
| 2026-04-30 19:46 | 55.09923 | -34.05590 | 39377 ft | 507 kts | 89° |
| 2026-04-30 19:46 | 55.09821 | -33.93317 | 39374 ft | 507 kts | 89° |
| 2026-04-30 19:47 | 55.09709 | -33.81115 | 39377 ft | 506 kts | 89° |
| 2026-04-30 19:47 | 55.09583 | -33.68865 | 39370 ft | 507 kts | 89° |
| 2026-04-30 19:48 | 55.09447 | -33.56606 | 39377 ft | 506 kts | 89° |
| 2026-04-30 19:48 | 55.09296 | -33.44356 | 39375 ft | 506 kts | 89° |
| 2026-04-30 19:49 | 55.09135 | -33.32207 | 39372 ft | 505 kts | 90° |
| 2026-04-30 19:49 | 55.08869 | -33.13873 | 39374 ft | 504 kts | 90° |
| 2026-04-30 19:50 | 55.08676 | -33.01675 | 39372 ft | 505 kts | 90° |
| 2026-04-30 19:50 | 55.08474 | -32.89534 | 39372 ft | 505 kts | 90° |
| 2026-04-30 19:51 | 55.08258 | -32.77359 | 39378 ft | 505 kts | 90° |
| 2026-04-30 19:51 | 55.08028 | -32.65129 | 39375 ft | 505 kts | 90° |
| 2026-04-30 19:52 | 55.07785 | -32.52897 | 39376 ft | 504 kts | 90° |
| 2026-04-30 19:52 | 55.07533 | -32.40725 | 39378 ft | 503 kts | 90° |
| 2026-04-30 19:53 | 55.07270 | -32.28606 | 39376 ft | 503 kts | 90° |
| 2026-04-30 19:53 | 55.06994 | -32.16461 | 39380 ft | 503 kts | 90° |
| 2026-04-30 19:54 | 55.06706 | -32.04289 | 39379 ft | 503 kts | 90° |
| 2026-04-30 19:54 | 55.06406 | -31.92187 | 39383 ft | 502 kts | 90° |
| 2026-04-30 19:55 | 55.06092 | -31.79980 | 39385 ft | 501 kts | 90° |
| 2026-04-30 19:55 | 55.05769 | -31.67903 | 39388 ft | 500 kts | 90° |
| 2026-04-30 19:56 | 55.05434 | -31.55807 | 39382 ft | 501 kts | 90° |
| 2026-04-30 19:56 | 55.05085 | -31.43670 | 39385 ft | 501 kts | 90° |
| 2026-04-30 19:57 | 55.04724 | -31.31531 | 39382 ft | 501 kts | 91° |
| 2026-04-30 19:57 | 55.04353 | -31.19459 | 39386 ft | 500 kts | 91° |
| 2026-04-30 19:58 | 55.03969 | -31.07385 | 39388 ft | 500 kts | 91° |
| 2026-04-30 19:58 | 55.03575 | -30.95358 | 39379 ft | 500 kts | 91° |
| 2026-04-30 19:59 | 55.03166 | -30.83258 | 39374 ft | 500 kts | 91° |
| 2026-04-30 20:00 | 55.02534 | -30.65216 | 39371 ft | 500 kts | 91° |
| 2026-04-30 20:00 | 55.02097 | -30.53195 | 39375 ft | 499 kts | 91° |
| 2026-04-30 20:01 | 55.01420 | -30.35170 | 39377 ft | 499 kts | 90° |
| 2026-04-30 20:01 | 55.00951 | -30.23096 | 39377 ft | 499 kts | 91° |
| 2026-04-30 20:02 | 55.00223 | -30.05054 | 39379 ft | 499 kts | 91° |
| 2026-04-30 20:03 | 54.99323 | -29.87062 | 39380 ft | 499 kts | 93° |
| 2026-04-30 20:03 | 54.98609 | -29.75114 | 39382 ft | 499 kts | 93° |
| 2026-04-30 20:04 | 54.97890 | -29.63196 | 39377 ft | 499 kts | 93° |
| 2026-04-30 20:05 | 54.96797 | -29.45255 | 39375 ft | 499 kts | 93° |
| 2026-04-30 20:05 | 54.95679 | -29.27294 | 39369 ft | 499 kts | 94° |
| 2026-04-30 20:06 | 54.94920 | -29.15353 | 39381 ft | 498 kts | 94° |
| 2026-04-30 20:06 | 54.94152 | -29.03447 | 39381 ft | 497 kts | 94° |
| 2026-04-30 20:07 | 54.93372 | -28.91552 | 39384 ft | 497 kts | 94° |
| 2026-04-30 20:08 | 54.92176 | -28.73647 | 39373 ft | 497 kts | 94° |
| 2026-04-30 20:08 | 54.91370 | -28.61805 | 39376 ft | 497 kts | 94° |
| 2026-04-30 20:09 | 54.90549 | -28.49897 | 39371 ft | 497 kts | 93° |
| 2026-04-30 20:09 | 54.89278 | -28.32131 | 39378 ft | 496 kts | 94° |
| 2026-04-30 20:10 | 54.87974 | -28.14407 | 39378 ft | 496 kts | 94° |
| 2026-04-30 20:11 | 54.86666 | -27.96674 | 39381 ft | 494 kts | 94° |
| 2026-04-30 20:11 | 54.85788 | -27.84906 | 39382 ft | 494 kts | 94° |
| 2026-04-30 20:12 | 54.84449 | -27.67226 | 39390 ft | 494 kts | 94° |
| 2026-04-30 20:13 | 54.83542 | -27.55481 | 39393 ft | 493 kts | 94° |
| 2026-04-30 20:13 | 54.82634 | -27.43875 | 39399 ft | 486 kts | 94° |
| 2026-04-30 20:14 | 54.81716 | -27.32215 | 39376 ft | 492 kts | 95° |
| 2026-04-30 20:14 | 54.80780 | -27.20493 | 39375 ft | 493 kts | 95° |
| 2026-04-30 20:15 | 54.79828 | -27.08751 | 39381 ft | 492 kts | 95° |
| 2026-04-30 20:15 | 54.78869 | -26.97053 | 39384 ft | 491 kts | 95° |
| 2026-04-30 20:16 | 54.77895 | -26.85330 | 39384 ft | 491 kts | 95° |
| 2026-04-30 20:16 | 54.76910 | -26.73623 | 39383 ft | 490 kts | 95° |
| 2026-04-30 20:17 | 54.75937 | -26.62176 | 39371 ft | 491 kts | 95° |
| 2026-04-30 20:17 | 54.74935 | -26.50534 | 39369 ft | 490 kts | 94° |
| 2026-04-30 20:18 | 54.73920 | -26.38876 | 39366 ft | 490 kts | 94° |
| 2026-04-30 20:18 | 54.72905 | -26.27333 | 39366 ft | 489 kts | 95° |
| 2026-04-30 20:19 | 54.71874 | -26.15723 | 39364 ft | 489 kts | 95° |
| 2026-04-30 20:19 | 54.70836 | -26.04200 | 39362 ft | 488 kts | 95° |
| 2026-04-30 20:20 | 54.69784 | -25.92638 | 39361 ft | 488 kts | 95° |
| 2026-04-30 20:20 | 54.68718 | -25.81057 | 39366 ft | 488 kts | 95° |
| 2026-04-30 20:21 | 54.67648 | -25.69541 | 39363 ft | 488 kts | 95° |
| 2026-04-30 20:21 | 54.66560 | -25.57987 | 39361 ft | 488 kts | 95° |
| 2026-04-30 20:22 | 54.65462 | -25.46424 | 39356 ft | 487 kts | 95° |
| 2026-04-30 20:22 | 54.64362 | -25.34963 | 39325 ft | 487 kts | 96° |
| 2026-04-30 20:23 | 54.63247 | -25.23463 | 39358 ft | 487 kts | 96° |
| 2026-04-30 20:23 | 54.62122 | -25.11973 | 39362 ft | 486 kts | 96° |
| 2026-04-30 20:24 | 54.60988 | -25.00511 | 39358 ft | 486 kts | 96° |
| 2026-04-30 20:24 | 54.59846 | -24.89114 | 39356 ft | 486 kts | 96° |
| 2026-04-30 20:25 | 54.58110 | -24.71946 | 39357 ft | 486 kts | 96° |
| 2026-04-30 20:26 | 54.56348 | -24.54814 | 39354 ft | 485 kts | 96° |
| 2026-04-30 20:26 | 54.54559 | -24.37669 | 39356 ft | 484 kts | 96° |
| 2026-04-30 20:27 | 54.52156 | -24.14977 | 39346 ft | 484 kts | 96° |
| 2026-04-30 20:28 | 54.49709 | -23.92300 | 39335 ft | 484 kts | 96° |
| 2026-04-30 20:30 | 54.46989 | -23.67600 | 39325 ft | 483 kts | 96° |
| 2026-04-30 20:31 | 54.43157 | -23.33606 | 39319 ft | 483 kts | 97° |
| 2026-04-30 20:32 | 54.40192 | -23.07888 | 39314 ft | 481 kts | 97° |
| 2026-04-30 20:33 | 54.38217 | -22.91038 | 39339 ft | 481 kts | 97° |
| 2026-04-30 20:34 | 54.36219 | -22.74213 | 39318 ft | 481 kts | 97° |
| 2026-04-30 20:35 | 54.34201 | -22.57447 | 39311 ft | 478 kts | 97° |
| 2026-04-30 20:35 | 54.32568 | -22.43995 | 39305 ft | 481 kts | 97° |
| 2026-04-30 20:36 | 54.31196 | -22.32822 | 39318 ft | 479 kts | 98° |
| 2026-04-30 20:37 | 54.29125 | -22.16102 | 39289 ft | 478 kts | 98° |
| 2026-04-30 20:37 | 54.27745 | -22.05081 | 39295 ft | 477 kts | 98° |
| 2026-04-30 20:38 | 54.26349 | -21.94014 | 39276 ft | 477 kts | 98° |
| 2026-04-30 20:38 | 54.24942 | -21.82960 | 39292 ft | 477 kts | 98° |
| 2026-04-30 20:39 | 54.22812 | -21.66385 | 39278 ft | 477 kts | 98° |
| 2026-04-30 20:40 | 54.20665 | -21.49871 | 39283 ft | 477 kts | 98° |
| 2026-04-30 20:40 | 54.19226 | -21.38908 | 39301 ft | 476 kts | 98° |
| 2026-04-30 20:41 | 54.17038 | -21.22390 | 39298 ft | 476 kts | 99° |
| 2026-04-30 20:41 | 54.15579 | -21.11462 | 39290 ft | 476 kts | 99° |
| 2026-04-30 20:42 | 54.14097 | -21.00458 | 39280 ft | 476 kts | 99° |
| 2026-04-30 20:43 | 54.11865 | -20.84059 | 39276 ft | 477 kts | 100° |
| 2026-04-30 20:43 | 54.10351 | -20.73043 | 39291 ft | 477 kts | 99° |
| 2026-04-30 20:44 | 54.08068 | -20.56565 | 39263 ft | 480 kts | 100° |
| 2026-04-30 20:45 | 54.04951 | -20.34376 | 39250 ft | 487 kts | 101° |
| 2026-04-30 20:45 | 54.03360 | -20.23171 | 39270 ft | 487 kts | 101° |
| 2026-04-30 20:46 | 54.00138 | -20.00829 | 39230 ft | 488 kts | 102° |
| 2026-04-30 20:47 | 53.97289 | -19.84285 | 39248 ft | 489 kts | 104° |
| 2026-04-30 20:48 | 53.94362 | -19.67749 | 39233 ft | 489 kts | 104° |
| 2026-04-30 20:48 | 53.92394 | -19.56719 | 39246 ft | 489 kts | 104° |
| 2026-04-30 20:49 | 53.90426 | -19.45766 | 39222 ft | 489 kts | 104° |
| 2026-04-30 20:50 | 53.87413 | -19.29300 | 39234 ft | 489 kts | 105° |
| 2026-04-30 20:50 | 53.85402 | -19.18342 | 39238 ft | 488 kts | 105° |
| 2026-04-30 20:51 | 53.83397 | -19.07430 | 39233 ft | 487 kts | 105° |
| 2026-04-30 20:51 | 53.80378 | -18.91098 | 39230 ft | 487 kts | 105° |
| 2026-04-30 20:52 | 53.78357 | -18.80239 | 39211 ft | 487 kts | 105° |
| 2026-04-30 20:53 | 53.75289 | -18.63868 | 39215 ft | 487 kts | 105° |
| 2026-04-30 20:53 | 53.73246 | -18.53048 | 39209 ft | 486 kts | 105° |
| 2026-04-30 20:54 | 53.70170 | -18.36869 | 39204 ft | 485 kts | 105° |
| 2026-04-30 20:55 | 53.67073 | -18.20694 | 39186 ft | 485 kts | 106° |
| 2026-04-30 20:55 | 53.64994 | -18.09904 | 39190 ft | 486 kts | 106° |
| 2026-04-30 20:56 | 53.61845 | -17.93711 | 39184 ft | 485 kts | 106° |
| 2026-04-30 20:57 | 53.58682 | -17.77585 | 39166 ft | 484 kts | 106° |
| 2026-04-30 20:57 | 53.56564 | -17.66859 | 39164 ft | 485 kts | 106° |
| 2026-04-30 20:58 | 53.53368 | -17.50782 | 39159 ft | 485 kts | 106° |
| 2026-04-30 20:58 | 53.51224 | -17.40072 | 39155 ft | 485 kts | 106° |
| 2026-04-30 20:59 | 53.47999 | -17.24058 | 39152 ft | 485 kts | 107° |
| 2026-04-30 21:00 | 53.43650 | -17.02666 | 39150 ft | 485 kts | 107° |
| 2026-04-30 21:01 | 53.40385 | -16.86775 | 39140 ft | 484 kts | 107° |
| 2026-04-30 21:02 | 53.37077 | -16.70794 | 39132 ft | 484 kts | 107° |
| 2026-04-30 21:02 | 53.34880 | -16.60248 | 39140 ft | 484 kts | 107° |
| 2026-04-30 21:03 | 53.32658 | -16.49646 | 39120 ft | 484 kts | 108° |
| 2026-04-30 21:03 | 53.30431 | -16.39080 | 39133 ft | 483 kts | 108° |
| 2026-04-30 21:04 | 53.28207 | -16.28571 | 39124 ft | 484 kts | 108° |
| 2026-04-30 21:04 | 53.24830 | -16.12699 | 39114 ft | 483 kts | 109° |
| 2026-04-30 21:05 | 53.22576 | -16.02187 | 39113 ft | 483 kts | 109° |
| 2026-04-30 21:05 | 53.20309 | -15.91674 | 39115 ft | 484 kts | 109° |
| 2026-04-30 21:06 | 53.18035 | -15.81185 | 39115 ft | 483 kts | 109° |
| 2026-04-30 21:06 | 53.15751 | -15.70709 | 39109 ft | 482 kts | 109° |
| 2026-04-30 21:07 | 53.13464 | -15.60272 | 39088 ft | 482 kts | 109° |
| 2026-04-30 21:07 | 53.11161 | -15.49814 | 39083 ft | 482 kts | 109° |
| 2026-04-30 21:08 | 53.08858 | -15.39416 | 39076 ft | 481 kts | 109° |
| 2026-04-30 21:08 | 53.06551 | -15.29043 | 39078 ft | 480 kts | 110° |
| 2026-04-30 21:09 | 53.04234 | -15.18670 | 39065 ft | 480 kts | 110° |
| 2026-04-30 21:09 | 53.02213 | -15.08135 | 39075 ft | 480 kts | 104° |
| 2026-04-30 21:10 | 53.00845 | -14.97323 | 39071 ft | 481 kts | 98° |
| 2026-04-30 21:10 | 53.00152 | -14.86327 | 39072 ft | 481 kts | 93° |
| 2026-04-30 21:11 | 53.00069 | -14.75231 | 39072 ft | 480 kts | 90° |
| 2026-04-30 21:11 | 53.00095 | -14.64200 | 39072 ft | 479 kts | 90° |
| 2026-04-30 21:12 | 53.00111 | -14.53190 | 39081 ft | 479 kts | 90° |
| 2026-04-30 21:12 | 53.00116 | -14.42065 | 39068 ft | 479 kts | 90° |
| 2026-04-30 21:13 | 53.00109 | -14.31090 | 39048 ft | 479 kts | 91° |
| 2026-04-30 21:13 | 53.00091 | -14.20104 | 39061 ft | 479 kts | 91° |
| 2026-04-30 21:14 | 53.00059 | -14.09062 | 39061 ft | 479 kts | 91° |
| 2026-04-30 21:14 | 53.00113 | -13.98048 | 39055 ft | 479 kts | 88° |
| 2026-04-30 21:15 | 53.00297 | -13.92542 | 38951 ft | 480 kts | 88° |
| 2026-04-30 21:15 | 53.00491 | -13.87079 | 38714 ft | 479 kts | 88° |
| 2026-04-30 21:15 | 53.00878 | -13.75988 | 38590 ft | 478 kts | 88° |
| 2026-04-30 21:16 | 53.01247 | -13.64985 | 38559 ft | 478 kts | 88° |
| 2026-04-30 21:16 | 53.01603 | -13.53965 | 38541 ft | 479 kts | 88° |
| 2026-04-30 21:17 | 53.01948 | -13.42911 | 38555 ft | 485 kts | 88° |
| 2026-04-30 21:17 | 53.02287 | -13.31713 | 38553 ft | 490 kts | 89° |
| 2026-04-30 21:18 | 53.02620 | -13.20386 | 38545 ft | 494 kts | 89° |
| 2026-04-30 21:18 | 53.02946 | -13.08983 | 38539 ft | 495 kts | 89° |
| 2026-04-30 21:19 | 53.03257 | -12.97644 | 38536 ft | 495 kts | 89° |
| 2026-04-30 21:19 | 53.03560 | -12.86256 | 38545 ft | 496 kts | 89° |
| 2026-04-30 21:20 | 53.03854 | -12.74802 | 38529 ft | 495 kts | 89° |
| 2026-04-30 21:20 | 53.04134 | -12.63397 | 38542 ft | 495 kts | 90° |
| 2026-04-30 21:21 | 53.04401 | -12.52062 | 38544 ft | 495 kts | 90° |
| 2026-04-30 21:22 | 53.04782 | -12.34898 | 38543 ft | 495 kts | 90° |
| 2026-04-30 21:23 | 53.05258 | -12.12159 | 38542 ft | 495 kts | 91° |
| 2026-04-30 21:23 | 53.05583 | -11.95051 | 38539 ft | 495 kts | 90° |
| 2026-04-30 21:24 | 53.05788 | -11.83641 | 38538 ft | 494 kts | 91° |
| 2026-04-30 21:24 | 53.05981 | -11.72294 | 38552 ft | 493 kts | 91° |
| 2026-04-30 21:25 | 53.06249 | -11.55197 | 38550 ft | 493 kts | 91° |
| 2026-04-30 21:26 | 53.06494 | -11.38187 | 38558 ft | 491 kts | 91° |
| 2026-04-30 21:27 | 53.06712 | -11.21259 | 38536 ft | 490 kts | 92° |
| 2026-04-30 21:27 | 53.06843 | -11.09998 | 38538 ft | 490 kts | 92° |
| 2026-04-30 21:28 | 53.07020 | -10.93082 | 38532 ft | 488 kts | 92° |
| 2026-04-30 21:29 | 53.07174 | -10.76162 | 38557 ft | 488 kts | 92° |
| 2026-04-30 21:29 | 53.07304 | -10.59665 | 38553 ft | 471 kts | 92° |
| 2026-04-30 21:30 | 53.07371 | -10.48729 | 38551 ft | 472 kts | 92° |
| 2026-04-30 21:31 | 53.07505 | -10.21538 | 38553 ft | 470 kts | 93° |
| 2026-04-30 21:32 | 53.07554 | -10.05186 | 38569 ft | 470 kts | 93° |
| 2026-04-30 21:32 | 53.07576 | -9.94299 | 38574 ft | 471 kts | 93° |
| 2026-04-30 21:33 | 53.07590 | -9.77977 | 38553 ft | 472 kts | 94° |
| 2026-04-30 21:34 | 53.07587 | -9.67063 | 38576 ft | 472 kts | 93° |
| 2026-04-30 21:34 | 53.07577 | -9.56267 | 38219 ft | 461 kts | 94° |
| 2026-04-30 21:34 | 53.07569 | -9.51027 | 37612 ft | 459 kts | 94° |
| 2026-04-30 21:35 | 53.07559 | -9.45757 | 36896 ft | 459 kts | 94° |
| 2026-04-30 21:35 | 53.07545 | -9.40411 | 36148 ft | 460 kts | 95° |
| 2026-04-30 21:35 | 53.07529 | -9.35096 | 35573 ft | 460 kts | 95° |
| 2026-04-30 21:35 | 53.07510 | -9.29819 | 34929 ft | 460 kts | 96° |
| 2026-04-30 21:36 | 53.07489 | -9.24510 | 34297 ft | 460 kts | 97° |
| 2026-04-30 21:36 | 53.07464 | -9.19236 | 33510 ft | 461 kts | 97° |
| 2026-04-30 21:37 | 53.07368 | -9.03243 | 30876 ft | 467 kts | 96° |
| 2026-04-30 21:37 | 53.07332 | -8.97880 | 29987 ft | 467 kts | 96° |
| 2026-04-30 21:37 | 53.07296 | -8.92517 | 29359 ft | 462 kts | 96° |
| 2026-04-30 21:37 | 53.07261 | -8.87220 | 28837 ft | 455 kts | 96° |
| 2026-04-30 21:38 | 53.07223 | -8.81992 | 28228 ft | 451 kts | 97° |
| 2026-04-30 21:38 | 53.07181 | -8.76884 | 27607 ft | 447 kts | 96° |
| 2026-04-30 21:38 | 53.07137 | -8.71719 | 26986 ft | 442 kts | 96° |
| 2026-04-30 21:38 | 53.07091 | -8.66682 | 26397 ft | 438 kts | 96° |
| 2026-04-30 21:39 | 53.07044 | -8.61590 | 25770 ft | 434 kts | 97° |
| 2026-04-30 21:39 | 53.06995 | -8.56651 | 25173 ft | 429 kts | 97° |
| 2026-04-30 21:39 | 53.06943 | -8.51726 | 24582 ft | 425 kts | 97° |
| 2026-04-30 21:39 | 53.06892 | -8.46884 | 24283 ft | 421 kts | 97° |
| 2026-04-30 21:40 | 53.06835 | -8.42009 | 24020 ft | 421 kts | 97° |
| 2026-04-30 21:40 | 53.06778 | -8.37159 | 23766 ft | 420 kts | 97° |
| 2026-04-30 21:40 | 53.06718 | -8.32313 | 23515 ft | 418 kts | 97° |
| 2026-04-30 21:40 | 53.06660 | -8.27465 | 23263 ft | 416 kts | 97° |
| 2026-04-30 21:41 | 53.06598 | -8.22667 | 23014 ft | 416 kts | 97° |
| 2026-04-30 21:41 | 53.06535 | -8.17915 | 22762 ft | 415 kts | 97° |
| 2026-04-30 21:41 | 53.06470 | -8.13083 | 22501 ft | 414 kts | 97° |
| 2026-04-30 21:41 | 53.06403 | -8.08364 | 22169 ft | 412 kts | 97° |
| 2026-04-30 21:42 | 53.06336 | -8.03566 | 21774 ft | 409 kts | 97° |
| 2026-04-30 21:42 | 53.06267 | -7.98874 | 21358 ft | 406 kts | 97° |
| 2026-04-30 21:42 | 53.06196 | -7.94165 | 20926 ft | 403 kts | 97° |
| 2026-04-30 21:42 | 53.06124 | -7.89513 | 20489 ft | 400 kts | 97° |
| 2026-04-30 21:43 | 53.06052 | -7.84968 | 20057 ft | 397 kts | 97° |
| 2026-04-30 21:43 | 53.05978 | -7.80405 | 19624 ft | 393 kts | 97° |
| 2026-04-30 21:43 | 53.05902 | -7.75826 | 19189 ft | 390 kts | 97° |
| 2026-04-30 21:43 | 53.05824 | -7.71351 | 18771 ft | 387 kts | 97° |
| 2026-04-30 21:44 | 53.05747 | -7.66945 | 18345 ft | 384 kts | 97° |
| 2026-04-30 21:44 | 53.05666 | -7.62502 | 17920 ft | 381 kts | 97° |
| 2026-04-30 21:44 | 53.05587 | -7.58147 | 17501 ft | 378 kts | 97° |
| 2026-04-30 21:44 | 53.05505 | -7.53800 | 17068 ft | 375 kts | 97° |
| 2026-04-30 21:45 | 53.05423 | -7.49524 | 16632 ft | 372 kts | 97° |
| 2026-04-30 21:45 | 53.05339 | -7.45215 | 16196 ft | 369 kts | 97° |
| 2026-04-30 21:45 | 53.05253 | -7.40997 | 15771 ft | 366 kts | 96° |
| 2026-04-30 21:45 | 53.05168 | -7.36790 | 15350 ft | 363 kts | 97° |
| 2026-04-30 21:46 | 53.05082 | -7.32551 | 14926 ft | 360 kts | 97° |
| 2026-04-30 21:46 | 53.04989 | -7.28435 | 14513 ft | 356 kts | 99° |
| 2026-04-30 21:46 | 53.04776 | -7.24363 | 14086 ft | 351 kts | 102° |
| 2026-04-30 21:46 | 53.04488 | -7.20379 | 13654 ft | 349 kts | 102° |
| 2026-04-30 21:47 | 53.04188 | -7.16364 | 13216 ft | 346 kts | 102° |
| 2026-04-30 21:47 | 53.03888 | -7.12377 | 12788 ft | 344 kts | 102° |
| 2026-04-30 21:47 | 53.03592 | -7.08465 | 12361 ft | 341 kts | 102° |
| 2026-04-30 21:47 | 53.03297 | -7.04589 | 11935 ft | 339 kts | 102° |
| 2026-04-30 21:48 | 53.03003 | -7.00723 | 11504 ft | 337 kts | 102° |
| 2026-04-30 21:48 | 53.02706 | -6.96858 | 11070 ft | 335 kts | 102° |
| 2026-04-30 21:48 | 53.02415 | -6.93065 | 10772 ft | 327 kts | 102° |
| 2026-04-30 21:48 | 53.02137 | -6.89430 | 10649 ft | 314 kts | 102° |
| 2026-04-30 21:49 | 53.01865 | -6.85913 | 10523 ft | 301 kts | 103° |
| 2026-04-30 21:49 | 53.01600 | -6.82519 | 10409 ft | 289 kts | 103° |
| 2026-04-30 21:49 | 53.01347 | -6.79304 | 10313 ft | 277 kts | 103° |
| 2026-04-30 21:49 | 53.01104 | -6.76200 | 10223 ft | 266 kts | 103° |
| 2026-04-30 21:50 | 53.00867 | -6.73198 | 10160 ft | 258 kts | 103° |
| 2026-04-30 21:50 | 53.00635 | -6.70273 | 10073 ft | 256 kts | 103° |
| 2026-04-30 21:50 | 53.00516 | -6.67300 | 9740 ft | 264 kts | 89° |
| 2026-04-30 21:50 | 53.01127 | -6.64393 | 9466 ft | 276 kts | 63° |
| 2026-04-30 21:51 | 53.02319 | -6.61871 | 9208 ft | 279 kts | 56° |
| 2026-04-30 21:51 | 53.03565 | -6.59427 | 8948 ft | 277 kts | 56° |
| 2026-04-30 21:51 | 53.04790 | -6.57016 | 8722 ft | 275 kts | 56° |
| 2026-04-30 21:51 | 53.06024 | -6.54558 | 8454 ft | 274 kts | 56° |
| 2026-04-30 21:52 | 53.07209 | -6.52183 | 8378 ft | 262 kts | 56° |
| 2026-04-30 21:52 | 53.08342 | -6.49912 | 8365 ft | 249 kts | 57° |
| 2026-04-30 21:52 | 53.09435 | -6.47709 | 8320 ft | 241 kts | 56° |
| 2026-04-30 21:52 | 53.10733 | -6.45902 | 8069 ft | 253 kts | 25° |
| 2026-04-30 21:53 | 53.12492 | -6.45604 | 7864 ft | 259 kts | 347° |
| 2026-04-30 21:53 | 53.14174 | -6.46574 | 7681 ft | 257 kts | 338° |
| 2026-04-30 21:53 | 53.15839 | -6.47714 | 7479 ft | 256 kts | 337° |
| 2026-04-30 21:53 | 53.17469 | -6.48813 | 7277 ft | 255 kts | 338° |
| 2026-04-30 21:54 | 53.19129 | -6.49898 | 7117 ft | 252 kts | 336° |
| 2026-04-30 21:54 | 53.20537 | -6.51546 | 7073 ft | 243 kts | 300° |
| 2026-04-30 21:54 | 53.21091 | -6.54082 | 7085 ft | 229 kts | 263° |
| 2026-04-30 21:54 | 53.20797 | -6.56606 | 7102 ft | 218 kts | 240° |
| 2026-04-30 21:55 | 53.20220 | -6.58942 | 7088 ft | 220 kts | 239° |
| 2026-04-30 21:55 | 53.19631 | -6.61298 | 7086 ft | 220 kts | 239° |
| 2026-04-30 21:55 | 53.19098 | -6.63723 | 6970 ft | 229 kts | 252° |
| 2026-04-30 21:55 | 53.19329 | -6.66395 | 6667 ft | 248 kts | 296° |
| 2026-04-30 21:56 | 53.20595 | -6.68364 | 6434 ft | 252 kts | 339° |
| 2026-04-30 21:56 | 53.22281 | -6.68779 | 6259 ft | 245 kts | 4° |
| 2026-04-30 21:56 | 53.23964 | -6.68677 | 6062 ft | 244 kts | 5° |
| 2026-04-30 21:56 | 53.25670 | -6.68611 | 5874 ft | 244 kts | 3° |
| 2026-04-30 21:57 | 53.27372 | -6.68648 | 5677 ft | 244 kts | 1° |
| 2026-04-30 21:57 | 53.29076 | -6.68766 | 5480 ft | 244 kts | 360° |
| 2026-04-30 21:57 | 53.30745 | -6.68923 | 5286 ft | 243 kts | 359° |
| 2026-04-30 21:57 | 53.32445 | -6.69099 | 5117 ft | 241 kts | 359° |
| 2026-04-30 21:58 | 53.34067 | -6.69273 | 5092 ft | 230 kts | 359° |
| 2026-04-30 21:58 | 53.35641 | -6.69443 | 5095 ft | 223 kts | 360° |
| 2026-04-30 21:58 | 53.37102 | -6.69468 | 5104 ft | 210 kts | 7° |
| 2026-04-30 21:58 | 53.37558 | -6.69420 | 5031 ft | 209 kts | 8° |
| 2026-04-30 21:59 | 53.38978 | -6.69219 | 4837 ft | 202 kts | 10° |
| 2026-04-30 21:59 | 53.40362 | -6.68994 | 4684 ft | 194 kts | 10° |
| 2026-04-30 21:59 | 53.41655 | -6.68783 | 4554 ft | 184 kts | 11° |
| 2026-04-30 22:00 | 53.44206 | -6.68369 | 4301 ft | 182 kts | 11° |
| 2026-04-30 22:00 | 53.46285 | -6.66903 | 3864 ft | 148 kts | 85° |
| 2026-04-30 22:00 | 53.46177 | -6.65290 | 3902 ft | 140 kts | 112° |
| 2026-04-30 22:01 | 53.45891 | -6.63702 | 3895 ft | 144 kts | 111° |
| 2026-04-30 22:01 | 53.45658 | -6.62044 | 3629 ft | 155 kts | 107° |
| 2026-04-30 22:01 | 53.45498 | -6.60192 | 3331 ft | 163 kts | 101° |
| 2026-04-30 22:01 | 53.45409 | -6.58290 | 3054 ft | 165 kts | 100° |
| 2026-04-30 22:02 | 53.45322 | -6.56356 | 2977 ft | 165 kts | 100° |
| 2026-04-30 22:02 | 53.45226 | -6.54431 | 2988 ft | 166 kts | 101° |
| 2026-04-30 22:02 | 53.45118 | -6.52487 | 2985 ft | 166 kts | 101° |
| 2026-04-30 22:02 | 53.45007 | -6.50576 | 2856 ft | 167 kts | 101° |
| 2026-04-30 22:03 | 53.44892 | -6.48636 | 2674 ft | 166 kts | 101° |
| 2026-04-30 22:03 | 53.44780 | -6.46734 | 2452 ft | 165 kts | 101° |
| 2026-04-30 22:03 | 53.44669 | -6.44835 | 2222 ft | 162 kts | 100° |
| 2026-04-30 22:03 | 53.44565 | -6.43003 | 1997 ft | 152 kts | 101° |
| 2026-04-30 22:04 | 53.44466 | -6.41286 | 1798 ft | 147 kts | 101° |
| 2026-04-30 22:04 | 53.44364 | -6.39568 | 1602 ft | 148 kts | 100° |
| 2026-04-30 22:04 | 53.44169 | -6.36123 | 1211 ft | 149 kts | 98° |
| 2026-04-30 22:05 | 53.44071 | -6.34382 | 1014 ft | 151 kts | 98° |
| 2026-04-30 22:05 | 53.43974 | -6.32637 | 817 ft | 153 kts | 97° |
| 2026-04-30 22:05 | 53.43873 | -6.30842 | 613 ft | 155 kts | 97° |
| 2026-04-30 22:05 | 53.43772 | -6.29037 | 405 ft | 156 kts | 96° |
| 2026-04-30 22:06 | 53.43678 | -6.27302 | 241 ft | 142 kts | 95° |
| 2026-04-30 22:06 | 53.43579 | -6.25552 | 217 ft | 31 kts | 97° |
| 2026-04-30 22:06 | 53.43516 | -6.25194 | 214 ft | 30 kts | 117° |
| 2026-04-30 22:07 | 53.43456 | -6.25020 | 214 ft | 8 kts | 131° |
| 2026-04-30 22:07 | 53.43438 | -6.24999 | 214 ft | 0 kts | 161° |
| 2026-04-30 22:08 | 53.43411 | -6.25000 | 214 ft | 8 kts | 199° |
| 2026-04-30 22:08 | 53.43383 | -6.25141 | 214 ft | 19 kts | 278° |
| 2026-04-30 22:08 | 53.43402 | -6.25422 | 217 ft | 27 kts | 275° |
| 2026-04-30 22:09 | 53.43380 | -6.25642 | 220 ft | 15 kts | 196° |
| 2026-04-30 22:09 | 53.43362 | -6.25641 | 220 ft | 0 kts | 161° |
| 2026-04-30 22:09 | 53.43340 | -6.25630 | 220 ft | 8 kts | 163° |
| 2026-04-30 22:10 | 53.43234 | -6.25577 | 218 ft | 20 kts | 160° |
| 2026-04-30 22:10 | 53.43093 | -6.25478 | 217 ft | 22 kts | 157° |
| 2026-04-30 22:10 | 53.42950 | -6.25367 | 216 ft | 24 kts | 149° |
| 2026-04-30 22:10 | 53.42815 | -6.25257 | 214 ft | 15 kts | 142° |
| 2026-04-30 22:11 | 53.42692 | -6.24955 | 214 ft | 17 kts | 145° |
| 2026-04-30 22:11 | 53.42583 | -6.24852 | 213 ft | 13 kts | 154° |
| 2026-04-30 22:11 | 53.42547 | -6.24810 | 213 ft | 2 kts | 103° |
| 2026-04-30 22:12 | 53.42549 | -6.24783 | 213 ft | 2 kts | 71° |
| 2026-04-30 22:12 | 53.42562 | -6.24721 | 215 ft | 4 kts | 71° |
| 2026-04-30 22:12 | 53.42565 | -6.24706 | 215 ft | 0 kts | 71° |